createdAt,value
2023-04-29T00:01:03.832Z,7.13
2023-04-29T00:02:06.019Z,7.05
2023-04-29T00:03:08.603Z,6.75
2023-04-29T00:04:11.025Z,6.32
2023-04-29T00:05:15.070Z,7.47
2023-04-29T00:06:18.214Z,6.30
2023-04-29T00:07:20.557Z,6.50
2023-04-29T00:08:22.990Z,7.07
2023-04-29T00:09:25.112Z,6.45
2023-04-29T00:10:27.170Z,6.90
2023-04-29T00:11:29.291Z,6.82
2023-04-29T00:12:32.488Z,8.23
2023-04-29T00:13:34.618Z,7.00
2023-04-29T00:14:37.367Z,7.82
2023-04-29T00:15:40.292Z,8.07
2023-04-29T00:16:42.510Z,5.82
2023-04-29T00:17:45.644Z,7.78
2023-04-29T00:18:47.909Z,7.45
2023-04-29T00:19:50.878Z,8.40
2023-04-29T00:20:54.662Z,8.20
2023-04-29T00:21:56.974Z,8.02
2023-04-29T00:22:59.120Z,8.57
2023-04-29T00:24:01.496Z,8.15
2023-04-29T00:25:04.331Z,7.72
2023-04-29T00:26:06.477Z,7.30
2023-04-29T00:27:08.604Z,6.93
2023-04-29T00:28:10.910Z,7.65
2023-04-29T00:29:13.093Z,8.30
2023-04-29T00:30:15.252Z,9.13
2023-04-29T00:31:17.552Z,8.68
2023-04-29T00:32:19.767Z,7.63
2023-04-29T00:33:22.101Z,8.48
2023-04-29T00:34:24.235Z,8.52
2023-04-29T00:35:26.521Z,8.35
2023-04-29T00:36:31.929Z,8.45
2023-04-29T00:37:35.104Z,8.00
2023-04-29T00:38:37.200Z,8.50
2023-04-29T00:39:39.436Z,7.70
2023-04-29T00:40:41.714Z,9.00
2023-04-29T00:41:44.098Z,8.43
2023-04-29T00:42:46.295Z,8.82
2023-04-29T00:43:48.378Z,8.60
2023-04-29T00:44:50.534Z,7.38
2023-04-29T00:45:52.721Z,8.93
2023-04-29T00:46:54.949Z,9.30
2023-04-29T00:47:57.400Z,8.05
2023-04-29T00:49:00.433Z,9.32
2023-04-29T00:50:02.660Z,8.82
2023-04-29T00:51:05.902Z,9.10
2023-04-29T00:52:11.834Z,9.35
2023-04-29T00:53:14.453Z,9.30
2023-04-29T00:54:17.355Z,8.32
2023-04-29T00:55:20.310Z,9.05
2023-04-29T00:56:23.053Z,9.82
2023-04-29T00:57:25.676Z,11.27
2023-04-29T00:58:33.495Z,11.68
2023-04-29T00:59:36.488Z,10.88
2023-04-29T01:00:38.979Z,10.95
2023-04-29T01:01:41.595Z,11.40
2023-04-29T01:02:45.073Z,12.48
2023-04-29T01:03:47.417Z,13.27
2023-04-29T01:04:49.661Z,14.32
2023-04-29T01:06:01.826Z,12.65
2023-04-29T01:07:14.559Z,13.77
2023-04-29T01:08:28.242Z,13.38
2023-04-29T01:09:53.050Z,12.68
2023-04-29T01:11:01.639Z,12.43
2023-04-29T01:12:13.751Z,11.88
2023-04-29T01:13:23.099Z,12.02
2023-04-29T01:14:26.162Z,11.63
2023-04-29T01:15:34.907Z,12.95
2023-04-29T01:16:41.395Z,12.00
2023-04-29T01:17:50.931Z,11.88
2023-04-29T01:18:56.398Z,11.30
2023-04-29T01:20:00.836Z,11.80
2023-04-29T01:21:03.115Z,10.73
2023-04-29T01:22:05.213Z,10.32
2023-04-29T01:23:08.711Z,9.32
2023-04-29T01:24:12.231Z,9.80
2023-04-29T01:25:14.590Z,9.38
2023-04-29T01:26:17.308Z,10.05
2023-04-29T01:27:29.964Z,9.63
2023-04-29T01:28:43.251Z,9.10
2023-04-29T01:29:51.852Z,10.38
2023-04-29T01:31:01.211Z,10.43
2023-04-29T01:33:51.029Z,11.00
2023-04-29T01:34:59.895Z,12.48
2023-04-29T01:36:13.951Z,17.10
2023-04-29T01:37:22.354Z,24.13
2023-04-29T01:38:31.166Z,20.67
2023-04-29T01:39:46.967Z,20.38
2023-04-29T01:40:56.881Z,17.92
2023-04-29T01:42:06.424Z,13.57
2023-04-29T01:43:12.064Z,13.40
2023-04-29T01:44:18.698Z,13.07
2023-04-29T01:45:22.725Z,11.52
2023-04-29T01:46:24.994Z,11.30
2023-04-29T01:47:29.286Z,12.20
2023-04-29T01:48:31.893Z,11.18
2023-04-29T01:49:37.916Z,11.88
2023-04-29T01:50:40.090Z,13.15
2023-04-29T01:51:42.363Z,12.00
2023-04-29T01:52:44.457Z,11.63
2023-04-29T01:53:46.561Z,11.60
2023-04-29T01:54:50.044Z,10.20
2023-04-29T01:55:52.150Z,10.85
2023-04-29T01:56:54.391Z,11.35
2023-04-29T01:57:56.515Z,9.20
2023-04-29T01:58:58.657Z,9.15
2023-04-29T02:00:02.200Z,9.82
2023-04-29T02:01:04.582Z,10.65
2023-04-29T02:02:06.718Z,11.60
2023-04-29T02:03:08.991Z,11.50
2023-04-29T02:04:11.641Z,11.23
2023-04-29T02:05:13.778Z,12.02
2023-04-29T02:06:16.045Z,10.98
2023-04-29T02:07:18.226Z,10.60
2023-04-29T02:08:20.354Z,11.23
2023-04-29T02:09:22.478Z,11.63
2023-04-29T02:10:26.138Z,11.35
2023-04-29T02:11:28.260Z,11.23
2023-04-29T02:12:30.374Z,11.88
2023-04-29T02:13:32.467Z,11.60
2023-04-29T02:14:37.424Z,10.98
2023-04-29T02:15:40.014Z,11.75
2023-04-29T02:16:45.624Z,13.88
2023-04-29T02:17:47.893Z,12.93
2023-04-29T02:18:50.057Z,13.43
2023-04-29T02:19:52.512Z,12.95
2023-04-29T02:21:01.777Z,14.00
2023-04-29T02:22:03.949Z,13.52
2023-04-29T02:23:06.071Z,16.38
2023-04-29T02:24:08.180Z,16.95
2023-04-29T02:25:11.417Z,15.50
2023-04-29T02:26:15.606Z,15.90
2023-04-29T02:27:18.186Z,17.10
2023-04-29T02:28:20.363Z,18.08
2023-04-29T02:29:22.473Z,18.70
2023-04-29T02:30:24.558Z,16.13
2023-04-29T02:31:27.101Z,15.98
2023-04-29T02:32:29.274Z,14.48
2023-04-29T02:33:31.670Z,14.27
2023-04-29T02:34:33.770Z,15.63
2023-04-29T02:35:36.084Z,14.68
2023-04-29T02:36:38.222Z,15.57
2023-04-29T02:37:40.372Z,16.20
2023-04-29T02:38:42.459Z,17.02
2023-04-29T02:39:44.581Z,16.55
2023-04-29T02:40:47.320Z,16.00
2023-04-29T02:41:53.955Z,14.88
2023-04-29T02:42:56.030Z,16.60
2023-04-29T02:43:58.148Z,14.15
2023-04-29T02:45:01.194Z,13.07
2023-04-29T02:46:03.326Z,12.07
2023-04-29T02:47:05.494Z,12.98
2023-04-29T02:48:08.138Z,12.65
2023-04-29T02:49:10.269Z,12.05
2023-04-29T02:50:12.404Z,12.23
2023-04-29T02:51:14.598Z,12.45
2023-04-29T02:52:17.350Z,13.10
2023-04-29T02:53:20.966Z,13.13
2023-04-29T02:54:23.050Z,12.50
2023-04-29T02:55:25.297Z,13.10
2023-04-29T02:56:27.756Z,12.95
2023-04-29T02:57:32.258Z,13.95
2023-04-29T02:58:34.403Z,13.70
2023-04-29T02:59:36.499Z,13.07
2023-04-29T03:00:40.548Z,12.85
2023-04-29T03:01:43.452Z,13.10
2023-04-29T03:02:45.985Z,13.25
2023-04-29T03:03:49.456Z,13.88
2023-04-29T03:04:52.327Z,12.18
2023-04-29T03:05:54.465Z,11.75
2023-04-29T03:06:57.000Z,11.48
2023-04-29T03:07:59.136Z,12.48
2023-04-29T03:09:01.296Z,11.52
2023-04-29T03:10:03.614Z,11.25
2023-04-29T03:11:05.852Z,12.23
2023-04-29T03:12:08.002Z,12.85
2023-04-29T03:13:11.600Z,11.90
2023-04-29T03:14:13.663Z,12.00
2023-04-29T03:15:15.919Z,12.23
2023-04-29T03:16:18.027Z,11.35
2023-04-29T03:17:20.249Z,11.98
2023-04-29T03:18:22.467Z,11.73
2023-04-29T03:19:24.722Z,12.50
2023-04-29T03:20:26.856Z,12.40
2023-04-29T03:21:29.886Z,11.13
2023-04-29T03:22:32.005Z,11.27
2023-04-29T03:23:34.089Z,11.15
2023-04-29T03:24:36.169Z,10.93
2023-04-29T03:25:38.341Z,10.93
2023-04-29T03:26:40.508Z,10.13
2023-04-29T03:27:43.196Z,11.05
2023-04-29T03:28:46.893Z,10.73
2023-04-29T03:29:49.459Z,11.13
2023-04-29T03:30:51.675Z,12.00
2023-04-29T03:31:54.124Z,11.70
2023-04-29T03:32:56.645Z,12.13
2023-04-29T03:33:58.774Z,11.65
2023-04-29T03:35:00.880Z,11.98
2023-04-29T03:36:03.351Z,11.45
2023-04-29T03:37:06.175Z,12.00
2023-04-29T03:38:08.326Z,12.68
2023-04-29T03:39:11.922Z,11.55
2023-04-29T03:40:14.326Z,11.65
2023-04-29T03:41:16.697Z,11.73
2023-04-29T03:42:18.895Z,12.18
2023-04-29T03:43:21.110Z,12.35
2023-04-29T03:44:24.704Z,11.90
2023-04-29T03:45:26.850Z,12.65
2023-04-29T03:46:29.203Z,13.98
2023-04-29T03:47:31.693Z,15.50
2023-04-29T03:48:33.794Z,13.88
2023-04-29T03:49:35.965Z,13.90
2023-04-29T03:50:38.111Z,14.45
2023-04-29T03:51:40.791Z,13.70
2023-04-29T03:52:42.960Z,13.40
2023-04-29T03:53:45.345Z,13.13
2023-04-29T03:54:47.487Z,13.68
2023-04-29T03:55:49.672Z,12.43
2023-04-29T03:56:51.843Z,13.63
2023-04-29T03:57:53.933Z,13.02
2023-04-29T03:58:56.026Z,12.73
2023-04-29T03:59:59.760Z,12.63
2023-04-29T04:01:01.943Z,13.20
2023-04-29T04:02:04.316Z,12.95
2023-04-29T04:03:06.698Z,13.15
2023-04-29T04:04:09.160Z,13.30
2023-04-29T04:05:11.457Z,13.80
2023-04-29T04:06:13.607Z,13.50
2023-04-29T04:07:15.922Z,13.25
2023-04-29T04:08:18.026Z,14.43
2023-04-29T04:09:20.330Z,13.88
2023-04-29T04:10:22.443Z,13.43
2023-04-29T04:11:24.604Z,13.30
2023-04-29T04:12:26.693Z,14.13
2023-04-29T04:13:28.829Z,14.13
2023-04-29T04:14:31.920Z,13.38
2023-04-29T04:15:36.052Z,13.38
2023-04-29T04:16:38.239Z,12.48
2023-04-29T04:17:40.539Z,12.93
2023-04-29T04:18:42.718Z,13.05
2023-04-29T04:19:44.797Z,13.65
2023-04-29T04:20:47.298Z,12.38
2023-04-29T04:21:49.414Z,12.95
2023-04-29T04:22:51.674Z,12.85
2023-04-29T04:23:53.783Z,12.75
2023-04-29T04:24:55.919Z,11.60
2023-04-29T04:25:58.115Z,11.60
2023-04-29T04:27:01.057Z,11.52
2023-04-29T04:28:03.220Z,10.77
2023-04-29T04:29:05.441Z,11.10
2023-04-29T04:30:08.855Z,10.10
2023-04-29T04:31:14.968Z,9.77
2023-04-29T04:32:17.988Z,11.18
2023-04-29T04:33:20.089Z,11.18
2023-04-29T04:34:22.191Z,9.52
2023-04-29T04:35:24.371Z,8.98
2023-04-29T04:36:26.603Z,9.20
2023-04-29T04:37:28.742Z,9.25
2023-04-29T04:38:32.989Z,8.98
2023-04-29T04:39:35.153Z,7.75
2023-04-29T04:40:37.327Z,7.78
2023-04-29T04:41:39.609Z,7.47
2023-04-29T04:42:41.865Z,7.75
2023-04-29T04:43:44.077Z,7.22
2023-04-29T04:44:46.524Z,6.97
2023-04-29T04:45:48.688Z,8.00
2023-04-29T04:46:52.551Z,7.38
2023-04-29T04:47:54.999Z,6.40
2023-04-29T04:48:57.214Z,6.47
2023-04-29T04:49:59.330Z,6.13
2023-04-29T04:51:08.475Z,6.50
2023-04-29T04:52:11.682Z,6.30
2023-04-29T04:53:13.864Z,6.20
2023-04-29T04:54:15.968Z,5.97
2023-04-29T04:55:18.071Z,6.22
2023-04-29T04:56:20.345Z,5.70
2023-04-29T04:57:22.536Z,6.60
2023-04-29T04:58:26.679Z,6.07
2023-04-29T04:59:28.759Z,5.85
2023-04-29T05:00:31.044Z,6.93
2023-04-29T05:01:33.271Z,6.63
2023-04-29T05:02:37.993Z,6.30
2023-04-29T05:03:40.530Z,5.60
2023-04-29T05:04:42.875Z,6.20
2023-04-29T05:05:45.028Z,6.10
2023-04-29T05:06:47.551Z,5.88
2023-04-29T05:07:49.631Z,5.88
2023-04-29T05:08:51.742Z,5.53
2023-04-29T05:09:54.045Z,5.45
2023-04-29T05:10:56.760Z,6.30
2023-04-29T05:11:59.432Z,5.43
2023-04-29T05:13:01.572Z,6.32
2023-04-29T05:14:03.766Z,6.43
2023-04-29T05:15:06.843Z,5.68
2023-04-29T05:16:08.943Z,6.00
2023-04-29T05:17:11.409Z,6.60
2023-04-29T05:18:14.936Z,6.57
2023-04-29T05:19:17.122Z,5.38
2023-04-29T05:20:20.575Z,5.22
2023-04-29T05:21:22.731Z,5.43
2023-04-29T05:22:25.027Z,5.18
2023-04-29T05:23:27.985Z,5.28
2023-04-29T05:24:30.456Z,5.32
2023-04-29T05:25:32.634Z,5.68
2023-04-29T05:26:34.774Z,5.40
2023-04-29T05:27:36.872Z,4.47
2023-04-29T05:28:38.986Z,4.70
2023-04-29T05:29:41.174Z,5.38
2023-04-29T05:30:43.899Z,5.03
2023-04-29T05:31:46.073Z,4.45
2023-04-29T05:32:49.054Z,5.07
2023-04-29T05:33:52.726Z,4.50
2023-04-29T05:34:55.040Z,4.43
2023-04-29T05:35:57.400Z,4.75
2023-04-29T05:36:59.612Z,4.85
2023-04-29T05:38:01.729Z,4.68
2023-04-29T05:39:03.935Z,5.57
2023-04-29T05:40:07.430Z,4.25
2023-04-29T05:41:09.503Z,4.45
2023-04-29T05:42:11.702Z,5.15
2023-04-29T05:43:13.940Z,5.00
2023-04-29T05:44:16.116Z,4.68
2023-04-29T05:45:18.336Z,3.60
2023-04-29T05:46:20.705Z,4.18
2023-04-29T05:47:22.964Z,5.32
2023-04-29T05:48:25.259Z,4.43
2023-04-29T05:49:28.791Z,4.63
2023-04-29T05:50:30.894Z,4.45
2023-04-29T05:51:33.036Z,3.75
2023-04-29T05:52:35.147Z,3.83
2023-04-29T05:53:38.401Z,3.72
2023-04-29T05:54:40.519Z,4.65
2023-04-29T05:55:45.143Z,4.40
2023-04-29T05:56:47.454Z,4.03
2023-04-29T05:57:49.553Z,4.28
2023-04-29T05:58:52.188Z,4.40
2023-04-29T05:59:57.788Z,4.22
2023-04-29T06:01:00.306Z,5.10
2023-04-29T06:02:03.034Z,4.15
2023-04-29T06:03:05.271Z,3.60
2023-04-29T06:04:08.242Z,3.80
2023-04-29T06:05:12.256Z,3.60
2023-04-29T06:06:14.884Z,3.97
2023-04-29T06:07:19.988Z,3.90
2023-04-29T06:08:22.466Z,4.18
2023-04-29T06:09:28.663Z,3.97
2023-04-29T06:10:30.771Z,3.78
2023-04-29T06:11:32.841Z,3.50
2023-04-29T06:12:35.209Z,3.72
2023-04-29T06:13:37.297Z,4.13
2023-04-29T06:14:39.511Z,3.97
2023-04-29T06:15:41.664Z,3.70
2023-04-29T06:16:44.188Z,3.10
2023-04-29T06:17:46.339Z,3.40
2023-04-29T06:18:48.472Z,3.70
2023-04-29T06:19:50.885Z,3.70
2023-04-29T06:20:54.598Z,3.50
2023-04-29T06:21:57.277Z,3.80
2023-04-29T06:22:59.375Z,3.83
2023-04-29T06:24:01.528Z,3.35
2023-04-29T06:25:03.918Z,3.05
2023-04-29T06:26:06.466Z,3.60
2023-04-29T06:27:08.595Z,3.60
2023-04-29T06:28:10.710Z,3.65
2023-04-29T06:29:12.849Z,3.13
2023-04-29T06:30:14.920Z,3.38
2023-04-29T06:31:17.437Z,3.20
2023-04-29T06:32:19.784Z,3.20
2023-04-29T06:33:22.119Z,3.30
2023-04-29T06:34:24.349Z,3.22
2023-04-29T06:35:26.530Z,3.42
2023-04-29T06:36:30.324Z,3.03
2023-04-29T06:37:32.518Z,3.47
2023-04-29T06:38:35.085Z,3.58
2023-04-29T06:39:37.228Z,3.30
2023-04-29T06:40:39.339Z,2.80
2023-04-29T06:41:41.467Z,4.18
2023-04-29T06:42:43.879Z,3.42
2023-04-29T06:43:48.066Z,3.22
2023-04-29T06:44:51.091Z,2.92
2023-04-29T06:45:53.252Z,2.85
2023-04-29T06:46:55.403Z,2.67
2023-04-29T06:47:57.606Z,2.70
2023-04-29T06:48:59.760Z,2.55
2023-04-29T06:50:02.044Z,2.38
2023-04-29T06:51:04.482Z,2.10
2023-04-29T06:52:08.001Z,1.92
2023-04-29T06:53:10.288Z,2.15
2023-04-29T06:54:12.421Z,1.85
2023-04-29T06:55:14.542Z,2.05
2023-04-29T06:56:17.194Z,2.17
2023-04-29T06:57:20.723Z,1.75
2023-04-29T06:58:22.876Z,2.05
2023-04-29T06:59:25.743Z,2.40
2023-04-29T07:00:27.964Z,2.25
2023-04-29T07:01:30.246Z,1.92
2023-04-29T07:02:32.736Z,2.55
2023-04-29T07:03:35.051Z,2.20
2023-04-29T07:04:38.109Z,2.10
2023-04-29T07:05:41.972Z,2.20
2023-04-29T07:06:47.004Z,2.22
2023-04-29T07:07:50.646Z,1.92
2023-04-29T07:08:54.859Z,2.08
2023-04-29T07:09:58.979Z,2.38
2023-04-29T07:11:01.207Z,2.00
2023-04-29T07:12:08.878Z,2.35
2023-04-29T07:13:30.606Z,1.95
2023-04-29T07:14:42.089Z,2.20
2023-04-29T07:15:56.253Z,2.10
2023-04-29T07:17:08.401Z,2.10
2023-04-29T07:18:16.122Z,2.10
2023-04-29T07:19:28.536Z,2.03
2023-04-29T07:20:37.512Z,2.10
2023-04-29T07:21:45.041Z,2.45
2023-04-29T07:22:49.243Z,1.95
2023-04-29T07:24:00.364Z,2.10
2023-04-29T07:25:03.849Z,2.20
2023-04-29T07:26:18.762Z,2.00
2023-04-29T07:27:21.334Z,2.08
2023-04-29T07:28:32.737Z,1.67
2023-04-29T07:29:38.871Z,2.33
2023-04-29T07:30:49.995Z,2.40
2023-04-29T07:31:54.492Z,2.55
2023-04-29T07:32:56.699Z,1.90
2023-04-29T07:34:02.428Z,1.95
2023-04-29T07:35:11.496Z,1.70
2023-04-29T07:36:13.922Z,1.83
2023-04-29T07:37:16.278Z,2.00
2023-04-29T07:38:27.640Z,2.08
2023-04-29T07:39:36.632Z,2.15
2023-04-29T07:40:38.905Z,2.42
2023-04-29T07:41:46.779Z,1.90
2023-04-29T07:42:49.472Z,1.38
2023-04-29T07:43:52.664Z,1.92
2023-04-29T07:44:55.309Z,1.58
2023-04-29T07:46:02.064Z,1.27
2023-04-29T07:47:04.482Z,1.67
2023-04-29T07:48:07.155Z,1.35
2023-04-29T07:49:09.543Z,1.70
2023-04-29T07:50:13.261Z,1.95
2023-04-29T07:51:18.114Z,1.60
2023-04-29T07:52:29.747Z,1.95
2023-04-29T07:53:33.738Z,1.77
2023-04-29T07:54:37.479Z,1.30
2023-04-29T07:55:39.652Z,1.23
2023-04-29T07:56:42.094Z,1.20
2023-04-29T07:57:44.215Z,1.08
2023-04-29T07:58:46.894Z,0.93
2023-04-29T07:59:53.645Z,1.20
2023-04-29T08:01:06.688Z,1.23
2023-04-29T08:02:12.740Z,1.13
2023-04-29T08:03:15.048Z,1.10
2023-04-29T08:04:29.762Z,1.02
2023-04-29T08:05:34.967Z,1.48
2023-04-29T08:06:44.155Z,1.65
2023-04-29T08:07:56.821Z,1.33
2023-04-29T08:09:10.156Z,1.45
2023-04-29T08:10:18.212Z,0.90
2023-04-29T08:11:24.648Z,0.90
2023-04-29T08:12:32.363Z,0.85
2023-04-29T08:13:39.850Z,0.82
2023-04-29T08:14:44.358Z,0.80
2023-04-29T08:15:59.744Z,0.77
2023-04-29T08:17:13.839Z,1.20
2023-04-29T08:18:20.046Z,1.10
2023-04-29T08:19:27.036Z,1.05
2023-04-29T08:20:32.128Z,1.02
2023-04-29T08:21:44.929Z,1.42
2023-04-29T08:22:49.842Z,0.90
2023-04-29T08:23:53.584Z,1.30
2023-04-29T08:24:56.041Z,0.77
2023-04-29T08:25:59.633Z,0.57
2023-04-29T08:27:01.856Z,0.90
2023-04-29T08:28:04.304Z,0.75
2023-04-29T08:29:06.833Z,0.93
2023-04-29T08:30:10.141Z,0.80
2023-04-29T08:31:17.667Z,1.05
2023-04-29T08:32:20.364Z,1.00
2023-04-29T08:33:22.810Z,0.70
2023-04-29T08:34:24.900Z,0.80
2023-04-29T08:35:27.497Z,0.77
2023-04-29T08:36:30.136Z,0.80
2023-04-29T08:37:32.543Z,0.63
2023-04-29T08:38:34.769Z,1.00
2023-04-29T08:39:37.072Z,1.10
2023-04-29T08:40:43.054Z,0.70
2023-04-29T08:41:51.269Z,1.00
2023-04-29T08:42:54.734Z,1.15
2023-04-29T08:43:58.088Z,1.20
2023-04-29T08:45:01.531Z,0.90
2023-04-29T08:46:07.042Z,0.70
2023-04-29T08:47:10.094Z,1.05
2023-04-29T08:48:12.765Z,0.98
2023-04-29T08:49:15.043Z,0.80
2023-04-29T08:50:18.222Z,0.82
2023-04-29T08:51:20.456Z,0.65
2023-04-29T08:52:22.815Z,0.68
2023-04-29T08:53:25.064Z,0.50
2023-04-29T08:54:28.760Z,0.45
2023-04-29T08:55:31.364Z,0.80
2023-04-29T08:56:34.202Z,0.80
2023-04-29T08:57:39.902Z,0.73
2023-04-29T08:58:43.313Z,0.73
2023-04-29T08:59:45.905Z,0.90
2023-04-29T09:00:48.737Z,0.60
2023-04-29T09:01:53.676Z,0.70
2023-04-29T09:02:57.387Z,0.80
2023-04-29T09:04:10.072Z,0.80
2023-04-29T09:05:12.626Z,0.93
2023-04-29T09:06:15.320Z,0.85
2023-04-29T09:07:18.161Z,0.88
2023-04-29T09:08:22.517Z,0.70
2023-04-29T09:09:25.201Z,0.90
2023-04-29T09:10:27.880Z,0.57
2023-04-29T09:11:30.968Z,0.57
2023-04-29T09:12:33.383Z,0.70
2023-04-29T09:13:37.269Z,0.47
2023-04-29T09:14:39.636Z,0.90
2023-04-29T09:15:42.764Z,0.60
2023-04-29T09:16:48.596Z,0.60
2023-04-29T09:17:51.068Z,0.60
2023-04-29T09:18:54.841Z,0.50
2023-04-29T09:19:57.644Z,0.98
2023-04-29T09:21:04.870Z,0.57
2023-04-29T09:22:08.173Z,0.40
2023-04-29T09:23:11.061Z,0.57
2023-04-29T09:24:26.540Z,0.70
2023-04-29T09:25:36.543Z,0.50
2023-04-29T09:26:43.455Z,0.45
2023-04-29T09:27:45.953Z,0.75
2023-04-29T09:29:07.129Z,0.50
2023-04-29T09:30:10.746Z,0.30
2023-04-29T09:31:17.689Z,0.50
2023-04-29T09:32:23.355Z,0.52
2023-04-29T09:33:28.786Z,0.57
2023-04-29T09:34:32.392Z,0.50
2023-04-29T09:35:35.474Z,0.90
2023-04-29T09:36:44.221Z,0.70
2023-04-29T09:37:46.371Z,0.70
2023-04-29T09:39:03.966Z,0.73
2023-04-29T09:40:16.726Z,0.63
2023-04-29T09:41:20.076Z,0.63
2023-04-29T09:42:22.383Z,0.50
2023-04-29T09:43:24.564Z,0.43
2023-04-29T09:44:32.997Z,0.50
2023-04-29T09:45:37.658Z,0.50
2023-04-29T09:46:40.231Z,0.60
2023-04-29T09:47:42.988Z,0.50
2023-04-29T09:48:46.413Z,0.60
2023-04-29T09:49:50.091Z,0.80
2023-04-29T09:51:04.092Z,0.50
2023-04-29T09:52:08.863Z,0.50
2023-04-29T09:53:12.231Z,0.80
2023-04-29T09:54:21.845Z,0.52
2023-04-29T09:55:24.220Z,0.60
2023-04-29T09:56:30.857Z,0.38
2023-04-29T09:57:44.909Z,0.50
2023-04-29T09:58:47.509Z,0.60
2023-04-29T09:59:51.270Z,0.95
2023-04-29T10:00:53.660Z,0.60
2023-04-29T10:01:57.176Z,0.68
2023-04-29T10:03:01.652Z,0.73
2023-04-29T10:04:06.670Z,0.70
2023-04-29T10:05:11.057Z,0.70
2023-04-29T10:06:14.560Z,0.50
2023-04-29T10:07:18.359Z,0.70
2023-04-29T10:08:21.322Z,0.60
2023-04-29T10:09:24.757Z,0.40
2023-04-29T10:10:31.955Z,0.60
2023-04-29T10:11:35.283Z,0.70
2023-04-29T10:12:41.111Z,0.40
2023-04-29T10:13:44.388Z,0.68
2023-04-29T10:14:55.194Z,0.43
2023-04-29T10:17:09.783Z,0.65
2023-04-29T10:18:19.284Z,0.77
2023-04-29T10:19:27.883Z,0.73
2023-04-29T10:20:30.918Z,0.70
2023-04-29T10:21:33.844Z,0.60
2023-04-29T10:22:44.698Z,0.75
2023-04-29T10:23:48.737Z,0.65
2023-04-29T10:24:53.943Z,0.68
2023-04-29T10:25:57.696Z,0.60
2023-04-29T10:27:03.108Z,0.60
2023-04-29T10:28:07.007Z,0.63
2023-04-29T10:29:11.391Z,0.80
2023-04-29T10:30:16.554Z,1.00
2023-04-29T10:31:21.800Z,0.80
2023-04-29T10:32:25.395Z,0.85
2023-04-29T10:33:30.100Z,0.70
2023-04-29T10:34:33.878Z,0.80
2023-04-29T10:35:37.854Z,0.65
2023-04-29T10:36:40.386Z,0.68
2023-04-29T10:37:43.804Z,0.68
2023-04-29T10:38:52.806Z,0.80
2023-04-29T10:40:05.706Z,0.60
2023-04-29T10:41:15.204Z,0.93
2023-04-29T10:42:26.200Z,0.82
2023-04-29T10:43:28.813Z,1.67
2023-04-29T10:44:31.162Z,0.80
2023-04-29T10:45:40.384Z,1.10
2023-04-29T10:46:43.014Z,0.80
2023-04-29T10:48:10.138Z,0.70
2023-04-29T10:49:12.743Z,0.90
2023-04-29T10:50:17.916Z,0.75
2023-04-29T10:51:31.642Z,0.90
2023-04-29T10:52:52.376Z,0.98
2023-04-29T10:54:08.236Z,1.30
2023-04-29T10:55:12.448Z,0.90
2023-04-29T10:56:14.649Z,0.80
2023-04-29T10:57:25.319Z,1.00
2023-04-29T10:58:47.060Z,0.90
2023-04-29T10:59:49.714Z,0.93
2023-04-29T11:00:53.796Z,1.05
2023-04-29T11:01:57.687Z,1.88
2023-04-29T11:03:03.003Z,1.50
2023-04-29T11:04:09.804Z,1.73
2023-04-29T11:05:12.790Z,1.40
2023-04-29T11:06:18.546Z,1.60
2023-04-29T11:07:38.881Z,1.52
2023-04-29T11:08:46.034Z,1.40
2023-04-29T11:09:51.813Z,1.40
2023-04-29T11:11:07.214Z,1.20
2023-04-29T11:12:12.582Z,2.13
2023-04-29T11:13:26.115Z,1.88
2023-04-29T11:14:31.652Z,1.70
2023-04-29T11:15:35.281Z,2.05
2023-04-29T11:16:46.750Z,1.73
2023-04-29T11:17:49.903Z,1.50
2023-04-29T11:19:06.667Z,1.80
2023-04-29T11:20:13.536Z,1.90
2023-04-29T11:21:19.545Z,2.50
2023-04-29T11:22:26.864Z,1.92
2023-04-29T11:23:29.367Z,1.88
2023-04-29T11:24:33.922Z,1.83
2023-04-29T11:25:37.414Z,1.95
2023-04-29T11:26:44.656Z,2.08
2023-04-29T11:27:49.284Z,2.20
2023-04-29T11:28:53.127Z,2.42
2023-04-29T11:29:58.319Z,2.88
2023-04-29T11:31:00.976Z,2.88
2023-04-29T11:32:04.842Z,3.25
2023-04-29T11:33:09.511Z,2.50
2023-04-29T11:34:11.727Z,2.15
2023-04-29T11:35:15.400Z,2.55
2023-04-29T11:36:17.605Z,2.25
2023-04-29T11:37:21.708Z,5.75
2023-04-29T11:38:27.353Z,4.60
2023-04-29T11:39:36.181Z,2.30
2023-04-29T11:40:43.325Z,2.30
2023-04-29T11:41:46.437Z,2.22
2023-04-29T11:42:51.633Z,2.20
2023-04-29T11:43:57.013Z,2.35
2023-04-29T11:44:59.606Z,2.35
2023-04-29T11:46:02.381Z,2.10
2023-04-29T11:47:09.570Z,2.30
2023-04-29T11:48:19.685Z,2.40
2023-04-29T11:49:30.092Z,2.30
2023-04-29T11:50:35.220Z,2.40
2023-04-29T11:51:39.845Z,2.33
2023-04-29T11:53:00.069Z,2.13
2023-04-29T11:54:18.106Z,2.08
2023-04-29T11:55:45.257Z,2.53
2023-04-29T11:56:50.245Z,2.55
2023-04-29T11:58:03.908Z,4.13
2023-04-29T11:59:08.305Z,2.30
2023-04-29T12:00:15.240Z,2.28
2023-04-29T12:01:22.644Z,2.40
2023-04-29T12:02:39.193Z,2.13
2023-04-29T12:03:44.717Z,2.20
2023-04-29T12:04:50.620Z,2.28
2023-04-29T12:06:01.624Z,2.60
2023-04-29T12:07:15.468Z,2.55
2023-04-29T12:08:39.399Z,2.47
2023-04-29T12:09:54.043Z,2.50
2023-04-29T12:11:00.266Z,2.20
2023-04-29T12:12:02.925Z,2.67
2023-04-29T12:13:05.452Z,2.42
2023-04-29T12:14:07.999Z,2.35
2023-04-29T12:15:11.054Z,2.63
2023-04-29T12:16:13.627Z,3.28
2023-04-29T12:17:17.600Z,3.22
2023-04-29T12:18:23.972Z,2.70
2023-04-29T12:19:26.465Z,2.90
2023-04-29T12:20:29.308Z,3.13
2023-04-29T12:21:32.114Z,3.00
2023-04-29T12:22:34.547Z,3.00
2023-04-29T12:23:38.400Z,3.00
2023-04-29T12:24:41.234Z,3.03
2023-04-29T12:25:49.361Z,2.90
2023-04-29T12:26:54.240Z,2.60
2023-04-29T12:28:00.232Z,2.90
2023-04-29T12:29:02.555Z,2.90
2023-04-29T12:30:09.698Z,2.95
2023-04-29T12:31:12.171Z,3.05
2023-04-29T12:32:18.397Z,2.65
2023-04-29T12:33:23.631Z,2.97
2023-04-29T12:34:26.653Z,3.03
2023-04-29T12:35:28.927Z,2.90
2023-04-29T12:36:32.961Z,2.97
2023-04-29T12:37:35.519Z,2.97
2023-04-29T12:38:37.895Z,3.35
2023-04-29T12:39:41.408Z,3.15
2023-04-29T12:40:45.047Z,2.90
2023-04-29T12:41:47.317Z,3.05
2023-04-29T12:42:49.674Z,3.08
2023-04-29T12:43:52.659Z,3.20
2023-04-29T12:44:55.315Z,3.25
2023-04-29T12:46:02.485Z,3.17
2023-04-29T12:47:09.484Z,2.72
2023-04-29T12:48:22.216Z,3.42
2023-04-29T12:49:34.550Z,3.25
2023-04-29T12:50:38.199Z,3.70
2023-04-29T12:51:40.793Z,3.20
2023-04-29T12:52:42.944Z,2.92
2023-04-29T12:53:45.107Z,2.83
2023-04-29T12:54:47.290Z,2.80
2023-04-29T12:55:52.383Z,3.17
2023-04-29T12:56:54.794Z,2.60
2023-04-29T12:57:58.056Z,2.80
2023-04-29T12:59:08.866Z,2.40
2023-04-29T13:00:12.384Z,2.50
2023-04-29T13:01:17.724Z,2.70
2023-04-29T13:02:20.946Z,2.80
2023-04-29T13:03:23.977Z,2.80
2023-04-29T13:04:26.505Z,2.60
2023-04-29T13:05:30.236Z,2.45
2023-04-29T13:06:33.033Z,2.80
2023-04-29T13:07:36.965Z,2.28
2023-04-29T13:08:40.126Z,2.25
2023-04-29T13:09:42.421Z,2.58
2023-04-29T13:10:44.681Z,2.72
2023-04-29T13:11:47.296Z,2.42
2023-04-29T13:12:49.542Z,2.40
2023-04-29T13:13:51.716Z,2.92
2023-04-29T13:14:57.759Z,3.05
2023-04-29T13:16:00.551Z,2.50
2023-04-29T13:17:04.209Z,2.63
2023-04-29T13:18:06.597Z,2.63
2023-04-29T13:19:24.692Z,2.78
2023-04-29T13:21:35.459Z,2.58
2023-04-29T13:22:38.181Z,2.42
2023-04-29T13:23:41.134Z,2.85
2023-04-29T13:24:43.334Z,2.58
2023-04-29T13:25:45.860Z,3.10
2023-04-29T13:26:50.948Z,3.00
2023-04-29T13:27:54.938Z,2.70
2023-04-29T13:28:57.303Z,2.50
2023-04-29T13:29:59.564Z,2.70
2023-04-29T13:31:01.678Z,2.90
2023-04-29T13:32:04.137Z,3.05
2023-04-29T13:33:12.163Z,3.10
2023-04-29T13:34:15.359Z,2.75
2023-04-29T13:35:17.734Z,3.20
2023-04-29T13:36:21.377Z,3.45
2023-04-29T13:37:23.596Z,3.40
2023-04-29T13:38:25.899Z,2.88
2023-04-29T13:39:28.069Z,3.35
2023-04-29T13:40:31.103Z,3.75
2023-04-29T13:41:35.710Z,3.05
2023-04-29T13:42:45.269Z,3.53
2023-04-29T13:43:51.552Z,2.80
2023-04-29T13:44:57.403Z,3.25
2023-04-29T13:45:59.624Z,3.03
2023-04-29T13:47:03.842Z,3.10
2023-04-29T13:48:20.856Z,3.15
2023-04-29T13:50:01.956Z,2.97
2023-04-29T13:52:27.317Z,3.00
2023-04-29T13:53:50.856Z,3.30
2023-04-29T13:57:39.201Z,3.53
2023-04-29T13:58:56.268Z,3.30
2023-04-29T13:59:46.635Z,4.07
2023-04-29T14:02:23.445Z,3.58
2023-04-29T14:03:18.949Z,3.42
2023-04-29T14:04:21.644Z,3.50
2023-04-29T14:05:24.497Z,3.15
2023-04-29T14:06:28.498Z,3.42
2023-04-29T14:07:32.153Z,3.25
2023-04-29T14:08:34.341Z,3.60
2023-04-29T14:09:36.485Z,3.53
2023-04-29T14:10:38.605Z,3.33
2023-04-29T14:11:40.719Z,3.20
2023-04-29T14:12:43.176Z,3.55
2023-04-29T14:13:45.347Z,3.67
2023-04-29T14:14:47.522Z,3.40
2023-04-29T14:15:49.924Z,3.75
2023-04-29T14:16:52.403Z,3.22
2023-04-29T14:17:55.267Z,3.38
2023-04-29T14:18:57.649Z,2.90
2023-04-29T14:19:59.832Z,3.28
2023-04-29T14:21:01.972Z,3.22